Time;durP1;ratioP1;P1;durP2;ratioP2;P2;SDS_P1;SDS_P2;PMS_P1;PMS_P2;Temp;Humidity;BMP_temperature;BMP_pressure;BME280_temperature;BME280_humidity;BME280_pressure;Samples;Min_cycle;Max_cycle;Signal;HPM_P1;HPM_P2
2022/07/05 00:01:17;;;;;;;7.45;2.50;;;;;;;;;;5025314;28;20041;-67
2022/07/05 00:03:44;;;;;;;5.93;2.40;;;;;;;;;;5018758;28;20049;-67
2022/07/05 00:06:13;;;;;;;4.88;2.55;;;;;;;;;;5022803;28;20493;-67
2022/07/05 00:08:40;;;;;;;5.80;2.50;;;;;;;;;;5019303;28;20076;-67
2022/07/05 00:11:07;;;;;;;5.32;2.50;;;;;;;;;;5023576;28;20111;-67
2022/07/05 00:13:35;;;;;;;4.45;2.30;;;;;;;;;;5020300;28;20052;-67
2022/07/05 00:16:02;;;;;;;5.28;2.28;;;;;;;;;;5022461;28;20057;-67
2022/07/05 00:18:29;;;;;;;6.40;2.42;;;;;;;;;;5006256;28;20059;-67
2022/07/05 00:20:56;;;;;;;5.47;2.60;;;;;;;;;;5003009;28;20122;-67
2022/07/05 00:23:25;;;;;;;5.65;2.17;;;;;;;;;;5019391;28;20104;-67
2022/07/05 00:25:52;;;;;;;4.20;2.38;;;;;;;;;;5004931;28;20055;-67
2022/07/05 00:28:19;;;;;;;5.60;2.20;;;;;;;;;;5021605;28;20091;-67
2022/07/05 00:30:46;;;;;;;3.50;2.55;;;;;;;;;;5018893;28;20447;-67
2022/07/05 00:33:14;;;;;;;4.13;2.50;;;;;;;;;;5004973;28;20076;-67
2022/07/05 00:35:41;;;;;;;3.28;2.40;;;;;;;;;;5017865;28;20060;-67
2022/07/05 00:38:08;;;;;;;4.97;2.40;;;;;;;;;;5023684;28;20558;-67
2022/07/05 00:40:36;;;;;;;5.95;2.97;;;;;;;;;;5021656;28;20045;-67
2022/07/05 00:43:04;;;;;;;4.90;2.35;;;;;;;;;;4999104;28;20049;-67
2022/07/05 00:45:31;;;;;;;6.18;2.50;;;;;;;;;;5021603;28;20752;-67
2022/07/05 00:47:58;;;;;;;3.72;2.05;;;;;;;;;;5023168;28;20056;-67
2022/07/05 00:50:25;;;;;;;6.65;2.80;;;;;;;;;;5017382;28;20057;-67
2022/07/05 00:52:54;;;;;;;7.10;2.20;;;;;;;;;;4988111;28;20716;-67
2022/07/05 00:55:22;;;;;;;6.97;2.50;;;;;;;;;;4998689;28;20061;-67
2022/07/05 00:57:51;;;;;;;4.47;2.40;;;;;;;;;;4983621;28;20068;-67
2022/07/05 01:00:19;;;;;;;3.78;2.47;;;;;;;;;;4999160;28;20736;-67
2022/07/05 01:02:46;;;;;;;3.42;2.05;;;;;;;;;;5003907;28;20053;-67
2022/07/05 01:05:14;;;;;;;3.97;2.50;;;;;;;;;;4994890;28;20090;-67
2022/07/05 01:07:41;;;;;;;3.53;2.00;;;;;;;;;;4993301;28;20063;-67
2022/07/05 01:10:08;;;;;;;5.30;2.30;;;;;;;;;;4994458;28;20141;-67
2022/07/05 01:12:36;;;;;;;4.25;2.15;;;;;;;;;;4996478;28;20038;-67
2022/07/05 01:15:05;;;;;;;6.82;2.30;;;;;;;;;;4998144;28;20053;-67
2022/07/05 01:17:32;;;;;;;2.75;1.75;;;;;;;;;;4991633;28;20053;-67
2022/07/05 01:19:59;;;;;;;5.70;2.30;;;;;;;;;;4997085;28;20057;-67
2022/07/05 01:22:27;;;;;;;4.10;2.50;;;;;;;;;;4997399;28;20186;-67
2022/07/05 01:24:56;;;;;;;4.53;2.30;;;;;;;;;;4993622;28;20046;-67
2022/07/05 01:27:23;;;;;;;6.88;2.20;;;;;;;;;;5002505;28;20681;-67
2022/07/05 01:29:51;;;;;;;4.53;2.05;;;;;;;;;;4998778;28;20053;-67
2022/07/05 01:32:18;;;;;;;5.82;2.30;;;;;;;;;;4991596;28;20349;-67
2022/07/05 01:34:46;;;;;;;9.18;2.28;;;;;;;;;;5002329;28;20050;-67
2022/07/05 01:37:13;;;;;;;4.78;2.10;;;;;;;;;;4999681;28;20053;-67
2022/07/05 01:39:40;;;;;;;5.25;2.22;;;;;;;;;;4984171;28;20049;-67
2022/07/05 01:42:09;;;;;;;4.13;2.20;;;;;;;;;;4999578;28;20050;-67
2022/07/05 01:44:36;;;;;;;4.03;2.00;;;;;;;;;;4994727;28;20054;-67
2022/07/05 01:47:07;;;;;;;6.10;2.10;;;;;;;;;;5002397;28;20649;-67
2022/07/05 01:49:40;;;;;;;4.70;2.20;;;;;;;;;;4999287;28;20053;-67
2022/07/05 01:52:10;;;;;;;5.93;2.60;;;;;;;;;;5008929;28;20116;-67
2022/07/05 01:54:37;;;;;;;4.25;2.30;;;;;;;;;;5022157;28;20057;-67
2022/07/05 01:57:05;;;;;;;5.97;2.45;;;;;;;;;;5019545;28;20144;-67
2022/07/05 01:59:34;;;;;;;5.63;2.25;;;;;;;;;;5021197;28;20049;-67
2022/07/05 02:02:02;;;;;;;4.07;2.65;;;;;;;;;;5020724;28;20488;-67
2022/07/05 02:04:30;;;;;;;4.57;2.25;;;;;;;;;;5012241;28;20057;-67
2022/07/05 02:06:57;;;;;;;4.40;2.15;;;;;;;;;;5020178;28;20409;-67
2022/07/05 02:09:24;;;;;;;6.25;2.10;;;;;;;;;;5015990;28;20056;-67
2022/07/05 02:11:52;;;;;;;4.60;2.25;;;;;;;;;;5015894;28;20057;-67
2022/07/05 02:14:19;;;;;;;6.45;1.95;;;;;;;;;;5020122;28;20073;-67
2022/07/05 02:16:47;;;;;;;4.97;2.25;;;;;;;;;;5004030;28;20068;-67
2022/07/05 02:19:15;;;;;;;4.07;1.92;;;;;;;;;;5006032;28;20104;-67
2022/07/05 02:21:42;;;;;;;7.25;2.30;;;;;;;;;;5014986;28;20066;-67
2022/07/05 02:24:09;;;;;;;6.32;1.80;;;;;;;;;;5013680;28;20056;-67
2022/07/05 02:26:37;;;;;;;10.00;2.28;;;;;;;;;;5019614;28;20614;-67
2022/07/05 02:29:04;;;;;;;5.93;2.33;;;;;;;;;;5013555;28;20080;-67
2022/07/05 02:31:31;;;;;;;6.00;2.95;;;;;;;;;;5017932;28;20744;-67
2022/07/05 02:34:00;;;;;;;3.38;2.10;;;;;;;;;;5019166;28;20393;-67
2022/07/05 02:36:27;;;;;;;4.70;2.50;;;;;;;;;;4999238;28;20057;-67
2022/07/05 02:38:54;;;;;;;2.97;2.00;;;;;;;;;;5009047;28;20468;-67
2022/07/05 02:41:21;;;;;;;4.00;1.60;;;;;;;;;;5015179;28;20037;-67
2022/07/05 02:43:49;;;;;;;4.03;1.98;;;;;;;;;;5018454;28;20557;-67
2022/07/05 02:46:16;;;;;;;7.47;1.88;;;;;;;;;;5016236;28;20045;-67
2022/07/05 02:48:43;;;;;;;3.50;1.50;;;;;;;;;;5013382;28;20049;-67
2022/07/05 02:51:12;;;;;;;3.22;1.77;;;;;;;;;;5019474;28;20792;-67
2022/07/05 02:53:39;;;;;;;3.13;1.80;;;;;;;;;;5016764;28;20099;-67
2022/07/05 02:56:06;;;;;;;2.88;2.03;;;;;;;;;;5015764;28;20691;-67
2022/07/05 02:58:34;;;;;;;4.60;2.50;;;;;;;;;;5017888;28;20053;-67
2022/07/05 03:01:01;;;;;;;5.80;1.90;;;;;;;;;;5016198;28;20057;-67
2022/07/05 03:03:28;;;;;;;4.95;1.92;;;;;;;;;;5023767;28;20120;-67
2022/07/05 03:05:55;;;;;;;4.05;1.70;;;;;;;;;;5016885;28;20046;-67
2022/07/05 03:08:24;;;;;;;3.15;1.70;;;;;;;;;;5016892;28;20123;-67
2022/07/05 03:10:51;;;;;;;2.78;1.70;;;;;;;;;;5013383;28;20049;-67
2022/07/05 03:13:18;;;;;;;5.30;1.80;;;;;;;;;;5016123;28;20405;-67
2022/07/05 03:15:46;;;;;;;3.22;1.90;;;;;;;;;;5017061;28;20049;-67
2022/07/05 03:18:13;;;;;;;8.93;1.77;;;;;;;;;;5019474;28;20054;-67
2022/07/05 03:20:40;;;;;;;4.63;1.80;;;;;;;;;;5015728;28;20056;-67
2022/07/05 03:23:07;;;;;;;4.90;1.77;;;;;;;;;;5010545;28;20046;-67
2022/07/05 03:25:36;;;;;;;3.60;1.45;;;;;;;;;;5014488;28;20524;-66
2022/07/05 03:28:03;;;;;;;8.43;1.90;;;;;;;;;;5020100;28;20558;-67
2022/07/05 03:30:30;;;;;;;5.38;1.92;;;;;;;;;;5012898;28;20572;-67
2022/07/05 03:32:58;;;;;;;5.82;1.80;;;;;;;;;;5019669;28;20053;-67
2022/07/05 03:35:25;;;;;;;4.70;1.73;;;;;;;;;;5017647;28;20053;-67
2022/07/05 03:37:52;;;;;;;4.63;1.98;;;;;;;;;;5010775;28;20112;-67
2022/07/05 03:40:19;;;;;;;4.95;1.60;;;;;;;;;;5020492;28;20049;-67
2022/07/05 03:42:48;;;;;;;6.55;1.55;;;;;;;;;;5021036;28;20045;-67
2022/07/05 03:45:15;;;;;;;4.57;1.90;;;;;;;;;;5019960;28;20060;-67
2022/07/05 03:47:42;;;;;;;5.60;2.10;;;;;;;;;;5024244;28;20076;-67
2022/07/05 03:50:10;;;;;;;5.30;1.80;;;;;;;;;;5023445;28;20037;-67
2022/07/05 03:52:37;;;;;;;6.55;2.00;;;;;;;;;;5020001;28;20654;-67
2022/07/05 03:55:04;;;;;;;3.15;1.63;;;;;;;;;;5022601;28;20051;-68
2022/07/05 03:57:31;;;;;;;6.15;1.95;;;;;;;;;;5019191;28;20111;-67
2022/07/05 04:00:00;;;;;;;3.50;1.52;;;;;;;;;;5019068;28;20088;-67
2022/07/05 04:02:27;;;;;;;7.97;1.80;;;;;;;;;;5004861;28;20674;-67
2022/07/05 04:04:54;;;;;;;5.88;1.88;;;;;;;;;;5020772;28;20446;-67
2022/07/05 04:07:22;;;;;;;3.72;1.73;;;;;;;;;;5010048;28;20045;-67
2022/07/05 04:09:49;;;;;;;9.68;1.77;;;;;;;;;;5007432;28;20045;-67
2022/07/05 04:12:16;;;;;;;5.97;1.60;;;;;;;;;;5018513;28;20058;-67
2022/07/05 04:14:43;;;;;;;5.63;1.50;;;;;;;;;;5022023;28;20049;-67
2022/07/05 04:17:12;;;;;;;8.02;1.48;;;;;;;;;;5020623;28;20065;-67
2022/07/05 04:19:39;;;;;;;6.65;1.65;;;;;;;;;;5020440;28;20045;-67
2022/07/05 04:22:06;;;;;;;3.60;1.50;;;;;;;;;;5020942;28;20099;-67
2022/07/05 04:25:16;;;;;;;4.88;1.40;;;;;;;;;;5021269;28;20431;-67
2022/07/05 04:27:21;;;;;;;4.32;1.50;;;;;;;;;;5021562;28;20521;-67
2022/07/05 04:29:49;;;;;;;3.53;1.73;;;;;;;;;;5021621;28;20045;-67
2022/07/05 04:32:17;;;;;;;7.75;1.60;;;;;;;;;;5014426;28;20049;-67
2022/07/05 04:34:44;;;;;;;6.35;1.42;;;;;;;;;;5020052;28;20049;-67
2022/07/05 04:37:11;;;;;;;3.53;1.30;;;;;;;;;;5018386;28;20108;-67
2022/07/05 04:39:39;;;;;;;7.45;1.60;;;;;;;;;;5020192;28;20045;-67
2022/07/05 04:42:06;;;;;;;6.50;1.30;;;;;;;;;;5017384;28;20038;-67
2022/07/05 04:44:33;;;;;;;5.13;1.50;;;;;;;;;;5021593;28;20491;-67
2022/07/05 04:47:01;;;;;;;7.00;1.63;;;;;;;;;;5006325;28;20057;-67
2022/07/05 04:49:29;;;;;;;5.05;1.20;;;;;;;;;;5022936;28;20057;-67
2022/07/05 04:51:56;;;;;;;4.70;1.20;;;;;;;;;;5009614;28;20042;-67
2022/07/05 04:54:24;;;;;;;6.47;1.50;;;;;;;;;;5020351;28;20144;-67
2022/07/05 04:56:51;;;;;;;5.18;1.60;;;;;;;;;;5021914;28;20369;-67
2022/07/05 04:59:18;;;;;;;8.50;1.70;;;;;;;;;;5020592;28;20061;-67
2022/07/05 05:01:45;;;;;;;9.13;1.35;;;;;;;;;;5017314;28;20606;-67
2022/07/05 05:04:12;;;;;;;4.28;1.85;;;;;;;;;;5016338;28;20057;-67
2022/07/05 05:06:41;;;;;;;9.05;2.13;;;;;;;;;;5015123;28;20133;-67
2022/07/05 05:09:08;;;;;;;5.25;1.58;;;;;;;;;;5011251;28;20435;-67
2022/07/05 05:11:35;;;;;;;7.85;1.20;;;;;;;;;;5015412;28;20042;-67
2022/07/05 05:14:03;;;;;;;5.50;1.20;;;;;;;;;;5015682;28;20462;-67
2022/07/05 05:16:30;;;;;;;3.60;0.98;;;;;;;;;;5007958;28;20054;-68
2022/07/05 05:18:57;;;;;;;8.38;1.83;;;;;;;;;;5017059;28;20652;-67
2022/07/05 05:21:24;;;;;;;6.82;1.00;;;;;;;;;;5021799;28;20049;-66
2022/07/05 05:23:53;;;;;;;10.10;1.20;;;;;;;;;;5020365;28;20627;-66
2022/07/05 05:26:20;;;;;;;3.55;1.02;;;;;;;;;;5019472;28;20046;-67
2022/07/05 05:28:47;;;;;;;8.40;1.27;;;;;;;;;;5020220;28;20053;-67
2022/07/05 05:31:15;;;;;;;8.48;1.60;;;;;;;;;;5019865;28;20141;-67
2022/07/05 05:33:42;;;;;;;4.72;1.23;;;;;;;;;;5017373;28;20055;-67
2022/07/05 05:36:09;;;;;;;6.45;1.40;;;;;;;;;;5018402;28;20115;-68
2022/07/05 05:38:36;;;;;;;7.25;1.42;;;;;;;;;;5016551;28;20095;-68
2022/07/05 05:41:05;;;;;;;8.43;1.35;;;;;;;;;;5021356;28;20045;-66
2022/07/05 05:43:32;;;;;;;6.93;1.00;;;;;;;;;;5021422;28;20053;-67
2022/07/05 05:46:00;;;;;;;7.53;1.20;;;;;;;;;;5016900;28;20135;-67
2022/07/05 05:48:27;;;;;;;4.93;1.23;;;;;;;;;;5013738;28;20539;-65
2022/07/05 05:50:54;;;;;;;9.50;1.33;;;;;;;;;;5020877;28;20534;-64
2022/07/05 05:53:21;;;;;;;9.50;1.10;;;;;;;;;;5017002;28;20053;-64
2022/07/05 05:55:49;;;;;;;8.73;1.33;;;;;;;;;;5016561;28;20508;-64
2022/07/05 05:58:18;;;;;;;8.73;1.20;;;;;;;;;;5015279;28;20041;-64
2022/07/05 06:00:47;;;;;;;10.57;1.00;;;;;;;;;;5020953;28;20415;-65
2022/07/05 06:03:15;;;;;;;12.70;1.67;;;;;;;;;;5017911;28;20041;-64
2022/07/05 06:05:42;;;;;;;10.50;1.50;;;;;;;;;;5014084;28;20835;-63
2022/07/05 06:08:10;;;;;;;10.27;1.30;;;;;;;;;;5019954;28;20060;-64
2022/07/05 06:10:37;;;;;;;8.82;1.40;;;;;;;;;;5014765;28;20115;-64
2022/07/05 06:13:06;;;;;;;10.13;1.45;;;;;;;;;;5014574;28;20041;-64
2022/07/05 06:15:34;;;;;;;8.25;1.42;;;;;;;;;;5002494;28;20518;-65
2022/07/05 06:18:02;;;;;;;9.88;1.55;;;;;;;;;;5001727;28;20617;-64
2022/07/05 06:20:30;;;;;;;9.25;1.27;;;;;;;;;;5020798;28;20050;-64
2022/07/05 06:22:57;;;;;;;8.65;1.30;;;;;;;;;;5013824;28;20090;-65
2022/07/05 06:25:25;;;;;;;7.50;1.38;;;;;;;;;;5015532;28;20423;-63
2022/07/05 06:27:53;;;;;;;11.23;1.65;;;;;;;;;;5017971;28;20053;-64
2022/07/05 06:30:21;;;;;;;8.38;1.35;;;;;;;;;;5014819;28;20049;-64
2022/07/05 06:32:50;;;;;;;10.52;1.35;;;;;;;;;;5011578;28;20042;-64
2022/07/05 06:35:17;;;;;;;6.55;1.45;;;;;;;;;;5021124;28;20056;-65
2022/07/05 06:37:45;;;;;;;7.85;1.35;;;;;;;;;;5019780;28;20579;-63
2022/07/05 06:40:13;;;;;;;10.23;1.27;;;;;;;;;;4998172;28;20127;-65
2022/07/05 06:42:40;;;;;;;5.78;1.02;;;;;;;;;;5021269;28;20486;-64
2022/07/05 06:45:08;;;;;;;12.63;1.52;;;;;;;;;;5017756;28;20054;-63
2022/07/05 06:47:36;;;;;;;5.80;1.30;;;;;;;;;;5019213;28;20659;-65
2022/07/05 06:50:04;;;;;;;6.30;1.15;;;;;;;;;;5007962;28;20065;-64
2022/07/05 06:52:32;;;;;;;9.80;1.38;;;;;;;;;;5011018;28;20179;-64
2022/07/05 06:54:59;;;;;;;7.78;1.38;;;;;;;;;;5012275;28;20045;-65
2022/07/05 06:57:27;;;;;;;6.28;1.00;;;;;;;;;;5015820;28;20049;-64
2022/07/05 06:59:54;;;;;;;9.52;1.52;;;;;;;;;;5016285;28;20156;-64
2022/07/05 07:02:21;;;;;;;9.15;1.17;;;;;;;;;;5021443;28;20623;-65
2022/07/05 07:04:49;;;;;;;5.35;1.10;;;;;;;;;;5016299;28;20053;-65
2022/07/05 07:10:03;;;;;;;5.55;1.00;;;;;;;;;;5011217;28;20187;-64
2022/07/05 07:12:31;;;;;;;10.75;1.10;;;;;;;;;;5014964;28;20046;-64
2022/07/05 07:14:58;;;;;;;7.75;1.10;;;;;;;;;;5024131;28;20079;-64
2022/07/05 07:17:25;;;;;;;5.75;1.20;;;;;;;;;;5022521;28;20081;-63
2022/07/05 07:19:53;;;;;;;9.55;1.30;;;;;;;;;;5021004;28;20463;-64
2022/07/05 07:22:21;;;;;;;6.15;1.27;;;;;;;;;;5014825;28;20046;-65
2022/07/05 07:24:48;;;;;;;7.38;0.80;;;;;;;;;;5017197;28;20048;-64
2022/07/05 07:27:16;;;;;;;6.65;1.15;;;;;;;;;;5015424;28;20176;-65
2022/07/05 07:29:43;;;;;;;7.88;1.40;;;;;;;;;;5022946;28;20733;-64
2022/07/05 07:32:10;;;;;;;6.95;1.10;;;;;;;;;;5023689;28;20057;-65
2022/07/05 07:34:38;;;;;;;6.80;1.20;;;;;;;;;;5015928;28;20041;-64
2022/07/05 07:37:05;;;;;;;8.35;1.45;;;;;;;;;;5020150;28;20076;-64
2022/07/05 07:39:34;;;;;;;5.80;0.98;;;;;;;;;;5018409;28;20068;-63
2022/07/05 07:42:01;;;;;;;5.68;1.20;;;;;;;;;;5003038;28;20062;-64
2022/07/05 07:44:28;;;;;;;5.82;0.90;;;;;;;;;;5011054;28;20060;-63
2022/07/05 07:46:55;;;;;;;5.70;1.10;;;;;;;;;;5021876;28;20053;-64
2022/07/05 07:49:23;;;;;;;5.82;1.25;;;;;;;;;;5013521;28;20083;-64
2022/07/05 07:51:50;;;;;;;5.80;1.00;;;;;;;;;;4999405;28;20057;-62
2022/07/05 07:54:17;;;;;;;4.45;1.05;;;;;;;;;;5021094;28;20053;-64
2022/07/05 07:56:46;;;;;;;6.80;1.00;;;;;;;;;;5019340;28;20049;-65
2022/07/05 07:59:13;;;;;;;7.95;1.27;;;;;;;;;;5021726;28;20054;-63
2022/07/05 08:01:40;;;;;;;9.63;1.20;;;;;;;;;;5024203;28;20071;-65
2022/07/05 08:04:07;;;;;;;8.35;0.93;;;;;;;;;;5018953;28;20037;-64
2022/07/05 08:06:35;;;;;;;3.83;0.75;;;;;;;;;;5014800;28;20062;-64
2022/07/05 08:09:02;;;;;;;2.95;0.82;;;;;;;;;;5016999;28;20499;-64
2022/07/05 08:11:29;;;;;;;5.07;1.00;;;;;;;;;;5022576;28;20045;-65
2022/07/05 08:13:58;;;;;;;5.40;0.90;;;;;;;;;;5022645;28;20112;-64
2022/07/05 08:16:25;;;;;;;5.25;1.35;;;;;;;;;;5022317;28;20053;-64
2022/07/05 08:21:38;;;;;;;5.78;0.85;;;;;;;;;;5021752;28;20064;-65
2022/07/05 08:24:06;;;;;;;6.25;1.33;;;;;;;;;;5022053;28;20488;-64
2022/07/05 08:26:34;;;;;;;6.43;1.20;;;;;;;;;;5022370;28;20061;-64
2022/07/05 08:29:04;;;;;;;5.32;1.40;;;;;;;;;;5020628;28;20415;-64
2022/07/05 08:31:33;;;;;;;6.13;1.17;;;;;;;;;;5022716;28;20045;-63
2022/07/05 08:34:00;;;;;;;7.30;1.40;;;;;;;;;;5021461;28;20045;-62
2022/07/05 08:36:27;;;;;;;3.40;1.00;;;;;;;;;;5023023;28;20095;-62
2022/07/05 08:38:54;;;;;;;3.65;0.80;;;;;;;;;;5019529;28;20053;-62
2022/07/05 08:41:22;;;;;;;5.85;0.80;;;;;;;;;;5022086;28;20049;-64
2022/07/05 08:43:51;;;;;;;6.88;0.90;;;;;;;;;;5021811;28;20473;-63
2022/07/05 08:46:20;;;;;;;5.07;0.75;;;;;;;;;;5021112;28;20126;-63
2022/07/05 08:48:49;;;;;;;7.05;0.80;;;;;;;;;;5023047;28;20700;-62
2022/07/05 08:51:17;;;;;;;5.75;1.10;;;;;;;;;;5020375;28;20053;-64
2022/07/05 08:53:44;;;;;;;11.23;1.65;;;;;;;;;;5018175;28;20053;-63
2022/07/05 08:56:12;;;;;;;9.10;1.45;;;;;;;;;;5021880;28;20050;-64
2022/07/05 08:58:40;;;;;;;8.15;1.20;;;;;;;;;;5022831;28;20045;-63
2022/07/05 09:01:08;;;;;;;5.40;0.95;;;;;;;;;;5019381;28;20049;-63
2022/07/05 09:03:39;;;;;;;5.05;1.13;;;;;;;;;;5016722;28;20057;-63
2022/07/05 09:06:09;;;;;;;7.15;1.27;;;;;;;;;;5021803;28;20114;-62
2022/07/05 09:08:39;;;;;;;6.13;1.27;;;;;;;;;;5021064;28;20648;-63
2022/07/05 09:11:07;;;;;;;6.07;1.25;;;;;;;;;;5021322;28;20048;-64
2022/07/05 09:13:35;;;;;;;9.52;1.65;;;;;;;;;;5020892;28;20053;-64
2022/07/05 09:16:02;;;;;;;3.50;1.08;;;;;;;;;;5019485;28;20060;-63
2022/07/05 09:18:44;;;;;;;9.45;1.45;;;;;;;;;;5021883;28;20689;-64
2022/07/05 09:21:15;;;;;;;5.32;1.10;;;;;;;;;;5017488;28;20128;-62
2022/07/05 09:23:43;;;;;;;5.45;1.10;;;;;;;;;;5022031;28;20116;-63
2022/07/05 09:26:10;;;;;;;6.43;1.00;;;;;;;;;;5020339;28;20060;-64
2022/07/05 09:28:38;;;;;;;4.32;1.10;;;;;;;;;;5021617;28;20111;-63
2022/07/05 09:31:05;;;;;;;4.95;0.90;;;;;;;;;;5019712;28;20061;-61
2022/07/05 09:33:32;;;;;;;7.20;1.10;;;;;;;;;;5021604;28;21358;-63
2022/07/05 09:36:02;;;;;;;3.50;0.80;;;;;;;;;;5018076;28;20054;-63
2022/07/05 09:38:30;;;;;;;4.68;0.90;;;;;;;;;;5007146;28;20140;-63
2022/07/05 09:40:58;;;;;;;7.28;1.10;;;;;;;;;;5018660;28;20054;-64
2022/07/05 09:43:25;;;;;;;5.95;1.25;;;;;;;;;;5018145;28;20045;-63
2022/07/05 09:45:56;;;;;;;3.92;1.33;;;;;;;;;;5016683;28;20546;-63
2022/07/05 09:48:24;;;;;;;6.20;1.00;;;;;;;;;;5010344;28;20060;-63
2022/07/05 09:50:51;;;;;;;3.28;0.73;;;;;;;;;;5001094;28;20049;-64
2022/07/05 09:53:20;;;;;;;4.43;0.93;;;;;;;;;;5003832;28;20157;-63
2022/07/05 09:56:02;;;;;;;2.90;0.80;;;;;;;;;;5018100;28;20045;-62
2022/07/05 09:58:29;;;;;;;7.75;0.93;;;;;;;;;;5015162;28;20084;-63
2022/07/05 10:00:56;;;;;;;3.38;0.80;;;;;;;;;;5021742;28;20436;-64
2022/07/05 10:03:24;;;;;;;3.83;0.90;;;;;;;;;;5014831;28;20065;-63
2022/07/05 10:05:51;;;;;;;4.25;0.98;;;;;;;;;;5014975;28;20059;-64
2022/07/05 10:08:20;;;;;;;4.15;0.90;;;;;;;;;;5016640;28;20707;-63
2022/07/05 10:10:49;;;;;;;5.43;0.80;;;;;;;;;;5014070;28;20057;-63
2022/07/05 10:13:16;;;;;;;5.15;0.90;;;;;;;;;;5013394;28;20056;-64
2022/07/05 10:15:44;;;;;;;4.63;1.00;;;;;;;;;;5020810;28;20054;-63
2022/07/05 10:18:13;;;;;;;4.97;1.00;;;;;;;;;;5013915;28;20053;-62
2022/07/05 10:20:41;;;;;;;5.47;1.20;;;;;;;;;;5017427;28;20144;-64
2022/07/05 10:23:09;;;;;;;4.45;1.17;;;;;;;;;;4996903;28;20049;-64
2022/07/05 10:25:38;;;;;;;5.25;0.90;;;;;;;;;;5004167;28;20107;-63
2022/07/05 10:28:06;;;;;;;5.45;1.38;;;;;;;;;;5017356;28;20065;-64
2022/07/05 10:30:34;;;;;;;3.63;1.02;;;;;;;;;;4994137;28;20056;-63
2022/07/05 10:33:03;;;;;;;5.93;1.10;;;;;;;;;;5016404;28;20049;-64
2022/07/05 10:35:30;;;;;;;8.55;1.30;;;;;;;;;;5020305;28;20049;-64
2022/07/05 10:37:58;;;;;;;4.30;1.10;;;;;;;;;;5010584;28;20047;-63
2022/07/05 10:40:26;;;;;;;4.35;1.13;;;;;;;;;;5016326;28;20277;-63
2022/07/05 10:42:56;;;;;;;6.63;1.25;;;;;;;;;;5010963;28;20053;-62
2022/07/05 10:45:33;;;;;;;7.20;1.33;;;;;;;;;;5002890;28;20057;-63
2022/07/05 10:48:19;;;;;;;5.82;1.30;;;;;;;;;;5021946;28;20488;-63
2022/07/05 10:50:49;;;;;;;3.45;1.20;;;;;;;;;;5024881;28;20404;-63
2022/07/05 10:53:16;;;;;;;5.53;1.38;;;;;;;;;;5024366;28;20053;-63
2022/07/05 10:55:53;;;;;;;7.00;1.35;;;;;;;;;;5025637;28;20041;-63
2022/07/05 10:58:23;;;;;;;4.22;1.15;;;;;;;;;;5020839;28;20111;-63
2022/07/05 11:01:10;;;;;;;7.68;1.42;;;;;;;;;;5023562;28;20050;-63
2022/07/05 11:03:38;;;;;;;6.97;1.38;;;;;;;;;;5020973;28;20156;-63
2022/07/05 11:06:07;;;;;;;6.05;1.35;;;;;;;;;;5023895;28;20062;-64
2022/07/05 11:09:02;;;;;;;6.25;1.23;;;;;;;;;;5021170;28;20465;-63
2022/07/05 11:11:30;;;;;;;5.47;1.20;;;;;;;;;;5019955;28;20128;-63
2022/07/05 11:13:59;;;;;;;4.63;1.13;;;;;;;;;;5011129;28;20057;-63
2022/07/05 11:16:27;;;;;;;5.43;0.70;;;;;;;;;;5024134;28;20370;-64
2022/07/05 11:19:07;;;;;;;4.82;1.10;;;;;;;;;;5024586;28;20049;-64
2022/07/05 11:21:35;;;;;;;6.75;1.42;;;;;;;;;;5020028;28;20048;-64
2022/07/05 11:24:17;;;;;;;6.40;1.30;;;;;;;;;;5018887;28;20439;-63
2022/07/05 11:26:45;;;;;;;7.07;1.40;;;;;;;;;;5020403;28;20052;-63
2022/07/05 11:29:27;;;;;;;5.10;1.27;;;;;;;;;;5023463;28;20041;-64
2022/07/05 11:32:06;;;;;;;3.33;1.10;;;;;;;;;;5017399;28;20042;-63
2022/07/05 11:34:34;;;;;;;7.63;1.40;;;;;;;;;;5019144;28;20084;-63
2022/07/05 11:37:21;;;;;;;6.40;1.40;;;;;;;;;;5018729;28;20108;-63
2022/07/05 11:40:09;;;;;;;6.93;1.45;;;;;;;;;;5019373;28;20050;-62
2022/07/05 11:42:39;;;;;;;6.07;1.70;;;;;;;;;;5021729;28;20042;-63
2022/07/05 11:45:07;;;;;;;9.60;1.58;;;;;;;;;;5020148;28;20132;-64
2022/07/05 11:47:34;;;;;;;10.98;1.80;;;;;;;;;;5016319;28;20046;-64
2022/07/05 11:50:02;;;;;;;5.22;1.25;;;;;;;;;;5020238;28;20472;-64
2022/07/05 11:52:30;;;;;;;5.10;1.65;;;;;;;;;;5006663;28;20053;-63
2022/07/05 11:54:57;;;;;;;5.72;1.20;;;;;;;;;;5021285;28;20057;-64
2022/07/05 11:57:26;;;;;;;4.03;1.08;;;;;;;;;;5014478;28;20135;-63
2022/07/05 11:59:54;;;;;;;3.38;1.00;;;;;;;;;;5015756;28;20424;-63
2022/07/05 12:02:22;;;;;;;4.68;0.98;;;;;;;;;;5022976;28;20119;-63
2022/07/05 12:04:49;;;;;;;5.75;1.10;;;;;;;;;;5018579;28;20051;-62
2022/07/05 12:07:25;;;;;;;5.07;1.02;;;;;;;;;;5018187;28;20053;-63
2022/07/05 12:12:44;;;;;;;5.53;0.93;;;;;;;;;;5018939;28;20439;-63
2022/07/05 12:15:13;;;;;;;4.70;1.20;;;;;;;;;;5018218;28;20480;-63
2022/07/05 12:17:41;;;;;;;3.45;0.75;;;;;;;;;;5019969;28;20108;-62
2022/07/05 12:20:11;;;;;;;5.57;1.15;;;;;;;;;;5017333;28;20072;-63
2022/07/05 12:22:39;;;;;;;7.82;1.48;;;;;;;;;;5010392;28;20042;-63
2022/07/05 12:25:09;;;;;;;4.60;1.08;;;;;;;;;;5022087;28;20064;-63
2022/07/05 12:27:38;;;;;;;4.63;1.10;;;;;;;;;;5021321;28;20129;-63
2022/07/05 12:30:06;;;;;;;5.35;1.10;;;;;;;;;;5020581;28;20080;-63
2022/07/05 12:32:36;;;;;;;5.47;1.10;;;;;;;;;;5023074;28;20052;-63
2022/07/05 12:35:04;;;;;;;2.15;0.82;;;;;;;;;;5009545;28;20649;-64
2022/07/05 12:37:31;;;;;;;2.20;0.60;;;;;;;;;;5017864;28;20050;-62
2022/07/05 12:40:04;;;;;;;5.25;0.98;;;;;;;;;;5020976;28;20049;-64
2022/07/05 12:42:32;;;;;;;3.83;0.95;;;;;;;;;;5020994;28;20046;-64
2022/07/05 12:45:12;;;;;;;2.28;0.73;;;;;;;;;;5022831;28;20045;-62
2022/07/05 12:47:51;;;;;;;6.00;1.00;;;;;;;;;;5016457;28;20046;-64
2022/07/05 12:50:18;;;;;;;3.28;0.80;;;;;;;;;;5021157;28;20132;-63
2022/07/05 12:58:01;;;;;;;16.15;1.60;;;;;;;;;;5014730;28;20097;-64
2022/07/05 12:58:34;;;;;;;4.25;1.10;;;;;;;;;;5017600;28;21184;-64
2022/07/05 13:01:01;;;;;;;5.63;1.35;;;;;;;;;;5019421;28;20092;-64
2022/07/05 13:03:30;;;;;;;6.28;1.33;;;;;;;;;;5019741;28;20053;-63
2022/07/05 13:06:02;;;;;;;6.57;1.17;;;;;;;;;;5016974;28;20515;-64
2022/07/05 13:08:30;;;;;;;2.88;1.00;;;;;;;;;;5016028;28;20070;-64
2022/07/05 13:10:57;;;;;;;4.60;1.17;;;;;;;;;;5020625;28;20053;-64
2022/07/05 13:13:25;;;;;;;5.32;1.25;;;;;;;;;;5021013;28;20140;-64
2022/07/05 13:15:53;;;;;;;4.18;1.25;;;;;;;;;;5017969;28;20050;-64
2022/07/05 13:18:31;;;;;;;4.40;1.30;;;;;;;;;;5016159;28;20042;-63
2022/07/05 13:20:58;;;;;;;3.20;1.20;;;;;;;;;;5018622;28;20056;-64
2022/07/05 13:23:26;;;;;;;2.55;1.02;;;;;;;;;;5019089;28;20061;-64
2022/07/05 13:25:53;;;;;;;3.42;1.10;;;;;;;;;;5012424;28;20080;-64
2022/07/05 13:28:20;;;;;;;3.75;1.08;;;;;;;;;;5021136;28;20053;-64
2022/07/05 13:30:47;;;;;;;4.47;1.17;;;;;;;;;;5019698;28;20060;-65
2022/07/05 13:33:14;;;;;;;5.55;1.45;;;;;;;;;;5018625;28;20569;-64
2022/07/05 13:35:43;;;;;;;5.97;1.27;;;;;;;;;;5021540;28;20045;-63
2022/07/05 13:38:10;;;;;;;3.30;1.27;;;;;;;;;;5016134;28;20133;-64
2022/07/05 13:40:39;;;;;;;6.82;1.38;;;;;;;;;;5016949;28;20053;-63
2022/07/05 13:43:07;;;;;;;3.15;1.10;;;;;;;;;;5014846;28;20065;-64
2022/07/05 13:45:34;;;;;;;5.93;1.20;;;;;;;;;;5012394;28;20041;-63
2022/07/05 13:48:01;;;;;;;3.88;1.10;;;;;;;;;;5022075;28;20053;-64
2022/07/05 13:50:35;;;;;;;4.05;1.20;;;;;;;;;;5004775;28;20111;-64
2022/07/05 13:53:03;;;;;;;6.68;1.20;;;;;;;;;;5016318;28;20053;-63
2022/07/05 13:55:31;;;;;;;2.92;1.10;;;;;;;;;;5019635;28;20056;-63
2022/07/05 13:57:59;;;;;;;2.25;0.85;;;;;;;;;;5013620;28;20107;-64
2022/07/05 14:00:26;;;;;;;2.88;1.17;;;;;;;;;;5016068;28;20053;-65
2022/07/05 14:02:54;;;;;;;6.80;1.20;;;;;;;;;;5015742;28;20045;-64
2022/07/05 14:05:21;;;;;;;3.60;1.15;;;;;;;;;;5019995;28;20049;-64
2022/07/05 14:07:48;;;;;;;4.00;1.13;;;;;;;;;;5017028;28;20532;-64
2022/07/05 14:10:17;;;;;;;3.78;0.90;;;;;;;;;;5020663;28;20692;-65
2022/07/05 14:12:44;;;;;;;4.15;1.00;;;;;;;;;;5020644;28;20495;-64
2022/07/05 14:15:12;;;;;;;5.68;1.52;;;;;;;;;;5001196;28;20053;-64
2022/07/05 14:17:39;;;;;;;3.80;1.38;;;;;;;;;;5019523;28;20053;-63
2022/07/05 14:20:07;;;;;;;3.33;1.00;;;;;;;;;;5002112;28;20045;-64
2022/07/05 14:22:34;;;;;;;7.05;1.30;;;;;;;;;;5017075;28;20042;-64
2022/07/05 14:25:02;;;;;;;4.80;1.27;;;;;;;;;;5017284;28;20057;-64
2022/07/05 14:27:31;;;;;;;2.53;1.05;;;;;;;;;;5019128;28;20661;-64
2022/07/05 14:29:58;;;;;;;3.60;1.13;;;;;;;;;;5001504;28;20060;-64
2022/07/05 14:32:25;;;;;;;4.07;1.15;;;;;;;;;;5017868;28;20111;-64
2022/07/05 14:34:52;;;;;;;4.55;1.10;;;;;;;;;;5001269;28;20112;-64
2022/07/05 14:37:20;;;;;;;4.03;1.00;;;;;;;;;;5018353;28;20053;-64
2022/07/05 14:39:49;;;;;;;1.70;0.73;;;;;;;;;;5004223;28;20068;-65
2022/07/05 14:42:16;;;;;;;5.82;1.58;;;;;;;;;;5020705;28;20046;-63
2022/07/05 14:44:44;;;;;;;1.88;0.85;;;;;;;;;;5018140;28;20057;-64
2022/07/05 14:47:12;;;;;;;4.40;1.15;;;;;;;;;;5001083;28;20080;-64
2022/07/05 14:49:39;;;;;;;4.57;1.45;;;;;;;;;;5014128;28;20514;-65
2022/07/05 14:52:07;;;;;;;3.50;1.00;;;;;;;;;;5020343;28;20083;-63
2022/07/05 14:54:34;;;;;;;3.78;1.23;;;;;;;;;;5021239;28;20049;-64
2022/07/05 14:57:01;;;;;;;4.68;1.05;;;;;;;;;;5020999;28;20053;-64
2022/07/05 14:59:28;;;;;;;3.10;1.05;;;;;;;;;;5016735;28;20053;-65
2022/07/05 15:01:57;;;;;;;3.83;1.20;;;;;;;;;;5003930;28;20104;-63